Loris, South Carolina
Current Conditions -  °F | °C
As of 9:55 PM on Tuesday 25 Nov 2014 (Local Time) from KCPC Reporting Station
Drizzle Drizzle  
Wind Chill: 63°   Ceiling: 200
Heat Index: 63°   Visibility: 5mi
Dew Point: 61°   Wind: 5mph
Humidity: 94%   Direction: 40°NE
Pressure: 30.01"   Gusts: NA
Location:  34.06°N, 78.89°W
Report Text: KCPC 260255Z AUTO 04004KT 5SM DZ BKN002 OVC006 17/16 A3001 RMK AO2 P0001
Loading
Personal Weather Stations






























Interactive Weather Map New forecast layout! Learn more

10-Day Weather Forecast

Advertisements
Track Severe Weather on mobile